sensor_id;sensor_type;location;lat;lon;timestamp;temperature;humidity
8043;DHT22;4064;48.132;11.366;2022-07-10T00:02:13;17.80;85.80
8043;DHT22;4064;48.132;11.366;2022-07-10T00:04:39;17.80;85.50
8043;DHT22;4064;48.132;11.366;2022-07-10T00:07:04;17.80;85.70
8043;DHT22;4064;48.132;11.366;2022-07-10T00:09:31;17.80;85.20
8043;DHT22;4064;48.132;11.366;2022-07-10T00:11:57;17.80;85.50
8043;DHT22;4064;48.132;11.366;2022-07-10T00:14:23;17.80;85.60
8043;DHT22;4064;48.132;11.366;2022-07-10T00:16:49;17.70;85.30
8043;DHT22;4064;48.132;11.366;2022-07-10T00:19:14;17.70;85.60
8043;DHT22;4064;48.132;11.366;2022-07-10T00:21:40;17.70;85.90
8043;DHT22;4064;48.132;11.366;2022-07-10T00:24:06;17.70;87.70
8043;DHT22;4064;48.132;11.366;2022-07-10T00:26:31;17.70;90.30
8043;DHT22;4064;48.132;11.366;2022-07-10T00:28:57;17.50;92.00
8043;DHT22;4064;48.132;11.366;2022-07-10T00:31:23;17.40;93.30
8043;DHT22;4064;48.132;11.366;2022-07-10T00:33:48;17.30;94.20
8043;DHT22;4064;48.132;11.366;2022-07-10T00:36:14;17.20;95.80
8043;DHT22;4064;48.132;11.366;2022-07-10T00:38:40;17.10;97.30
8043;DHT22;4064;48.132;11.366;2022-07-10T00:41:06;16.90;98.60
8043;DHT22;4064;48.132;11.366;2022-07-10T00:44:00;16.90;99.90
8043;DHT22;4064;48.132;11.366;2022-07-10T00:46:26;16.90;99.90
8043;DHT22;4064;48.132;11.366;2022-07-10T00:48:53;16.80;99.90
8043;DHT22;4064;48.132;11.366;2022-07-10T00:51:21;16.70;99.90
8043;DHT22;4064;48.132;11.366;2022-07-10T00:53:48;16.70;99.90
8043;DHT22;4064;48.132;11.366;2022-07-10T00:56:19;16.60;99.90
8043;DHT22;4064;48.132;11.366;2022-07-10T00:58:47;16.50;99.90
8043;DHT22;4064;48.132;11.366;2022-07-10T01:01:13;16.40;99.90
8043;DHT22;4064;48.132;11.366;2022-07-10T01:03:39;16.40;99.90
8043;DHT22;4064;48.132;11.366;2022-07-10T01:06:05;16.40;99.90
8043;DHT22;4064;48.132;11.366;2022-07-10T01:08:32;16.40;99.90
8043;DHT22;4064;48.132;11.366;2022-07-10T01:10:58;16.40;99.90
8043;DHT22;4064;48.132;11.366;2022-07-10T01:13:24;16.50;99.90
8043;DHT22;4064;48.132;11.366;2022-07-10T01:15:49;16.50;99.90
8043;DHT22;4064;48.132;11.366;2022-07-10T01:18:16;16.40;99.90
8043;DHT22;4064;48.132;11.366;2022-07-10T01:20:42;16.40;99.90
8043;DHT22;4064;48.132;11.366;2022-07-10T01:23:07;16.30;99.90
8043;DHT22;4064;48.132;11.366;2022-07-10T01:25:33;16.30;99.90
8043;DHT22;4064;48.132;11.366;2022-07-10T01:27:59;16.20;99.90
8043;DHT22;4064;48.132;11.366;2022-07-10T01:30:25;16.10;99.90
8043;DHT22;4064;48.132;11.366;2022-07-10T01:32:51;16.20;99.90
8043;DHT22;4064;48.132;11.366;2022-07-10T01:35:19;16.10;99.90
8043;DHT22;4064;48.132;11.366;2022-07-10T01:37:45;16.10;99.90
8043;DHT22;4064;48.132;11.366;2022-07-10T01:40:11;16.10;99.90
8043;DHT22;4064;48.132;11.366;2022-07-10T01:42:40;16.00;99.90
8043;DHT22;4064;48.132;11.366;2022-07-10T01:45:07;16.00;99.90
8043;DHT22;4064;48.132;11.366;2022-07-10T01:47:33;16.00;99.90
8043;DHT22;4064;48.132;11.366;2022-07-10T01:49:59;16.00;99.90
8043;DHT22;4064;48.132;11.366;2022-07-10T01:52:24;16.00;99.90
8043;DHT22;4064;48.132;11.366;2022-07-10T01:54:50;15.90;99.90
8043;DHT22;4064;48.132;11.366;2022-07-10T01:57:16;16.00;99.90
8043;DHT22;4064;48.132;11.366;2022-07-10T01:59:41;15.90;99.90
8043;DHT22;4064;48.132;11.366;2022-07-10T02:02:07;15.90;99.90
8043;DHT22;4064;48.132;11.366;2022-07-10T02:04:33;15.90;99.90
8043;DHT22;4064;48.132;11.366;2022-07-10T02:07:13;15.90;99.90
8043;DHT22;4064;48.132;11.366;2022-07-10T02:09:39;15.90;99.90
8043;DHT22;4064;48.132;11.366;2022-07-10T02:12:09;15.80;99.90
8043;DHT22;4064;48.132;11.366;2022-07-10T02:14:35;15.70;99.90
8043;DHT22;4064;48.132;11.366;2022-07-10T02:17:01;15.70;99.90
8043;DHT22;4064;48.132;11.366;2022-07-10T02:19:27;15.70;99.90
8043;DHT22;4064;48.132;11.366;2022-07-10T02:21:53;15.70;99.90
8043;DHT22;4064;48.132;11.366;2022-07-10T02:24:19;15.70;99.90
8043;DHT22;4064;48.132;11.366;2022-07-10T02:26:45;15.70;99.90
8043;DHT22;4064;48.132;11.366;2022-07-10T02:29:10;15.60;99.90
8043;DHT22;4064;48.132;11.366;2022-07-10T02:31:36;15.60;99.90
8043;DHT22;4064;48.132;11.366;2022-07-10T02:34:10;15.60;99.90
8043;DHT22;4064;48.132;11.366;2022-07-10T02:36:37;15.60;99.90
8043;DHT22;4064;48.132;11.366;2022-07-10T02:39:04;15.60;99.90
8043;DHT22;4064;48.132;11.366;2022-07-10T02:41:30;15.50;99.90
8043;DHT22;4064;48.132;11.366;2022-07-10T02:43:56;15.50;99.90
8043;DHT22;4064;48.132;11.366;2022-07-10T02:46:22;15.50;99.90
8043;DHT22;4064;48.132;11.366;2022-07-10T02:48:47;15.50;99.90
8043;DHT22;4064;48.132;11.366;2022-07-10T02:51:13;15.50;99.90
8043;DHT22;4064;48.132;11.366;2022-07-10T02:53:39;15.50;99.90
8043;DHT22;4064;48.132;11.366;2022-07-10T02:56:05;15.40;99.90
8043;DHT22;4064;48.132;11.366;2022-07-10T02:58:31;15.40;99.90
8043;DHT22;4064;48.132;11.366;2022-07-10T03:00:57;15.40;99.90
8043;DHT22;4064;48.132;11.366;2022-07-10T03:03:22;15.40;99.90
8043;DHT22;4064;48.132;11.366;2022-07-10T03:05:48;15.30;99.90
8043;DHT22;4064;48.132;11.366;2022-07-10T03:08:14;15.30;99.90
8043;DHT22;4064;48.132;11.366;2022-07-10T03:10:39;15.20;99.90
8043;DHT22;4064;48.132;11.366;2022-07-10T03:13:06;15.10;99.90
8043;DHT22;4064;48.132;11.366;2022-07-10T03:15:31;15.10;99.90
8043;DHT22;4064;48.132;11.366;2022-07-10T03:17:57;15.10;99.90
8043;DHT22;4064;48.132;11.366;2022-07-10T03:20:23;15.10;99.90
8043;DHT22;4064;48.132;11.366;2022-07-10T03:22:49;15.00;99.90
8043;DHT22;4064;48.132;11.366;2022-07-10T03:25:15;15.00;99.90
8043;DHT22;4064;48.132;11.366;2022-07-10T03:27:41;15.00;99.90
8043;DHT22;4064;48.132;11.366;2022-07-10T03:30:07;15.00;99.90
8043;DHT22;4064;48.132;11.366;2022-07-10T03:32:33;14.90;99.90
8043;DHT22;4064;48.132;11.366;2022-07-10T03:34:59;14.90;99.90
8043;DHT22;4064;48.132;11.366;2022-07-10T03:37:24;14.90;99.90
8043;DHT22;4064;48.132;11.366;2022-07-10T03:39:50;14.80;99.90
8043;DHT22;4064;48.132;11.366;2022-07-10T03:42:16;14.80;99.90
8043;DHT22;4064;48.132;11.366;2022-07-10T03:44:41;14.80;99.90
8043;DHT22;4064;48.132;11.366;2022-07-10T03:47:07;14.80;99.90
8043;DHT22;4064;48.132;11.366;2022-07-10T03:49:33;14.80;99.90
8043;DHT22;4064;48.132;11.366;2022-07-10T03:52:02;14.80;99.90
8043;DHT22;4064;48.132;11.366;2022-07-10T03:54:29;14.80;99.90
8043;DHT22;4064;48.132;11.366;2022-07-10T03:56:55;14.80;99.90
8043;DHT22;4064;48.132;11.366;2022-07-10T03:59:40;14.80;99.90
8043;DHT22;4064;48.132;11.366;2022-07-10T04:02:06;14.80;99.90
8043;DHT22;4064;48.132;11.366;2022-07-10T04:04:32;14.80;99.90
8043;DHT22;4064;48.132;11.366;2022-07-10T04:06:58;14.80;99.90
8043;DHT22;4064;48.132;11.366;2022-07-10T04:09:23;14.80;99.90
8043;DHT22;4064;48.132;11.366;2022-07-10T04:11:49;14.80;99.90
8043;DHT22;4064;48.132;11.366;2022-07-10T04:14:14;14.80;99.90
8043;DHT22;4064;48.132;11.366;2022-07-10T04:16:40;14.80;99.90
8043;DHT22;4064;48.132;11.366;2022-07-10T04:19:06;14.80;99.90
8043;DHT22;4064;48.132;11.366;2022-07-10T04:21:32;14.80;99.90
8043;DHT22;4064;48.132;11.366;2022-07-10T04:23:57;14.80;99.90
8043;DHT22;4064;48.132;11.366;2022-07-10T04:26:23;14.80;99.90
8043;DHT22;4064;48.132;11.366;2022-07-10T04:28:49;14.90;99.90
8043;DHT22;4064;48.132;11.366;2022-07-10T04:31:14;14.90;99.90
8043;DHT22;4064;48.132;11.366;2022-07-10T04:33:40;14.90;99.90
8043;DHT22;4064;48.132;11.366;2022-07-10T04:36:06;14.90;99.90
8043;DHT22;4064;48.132;11.366;2022-07-10T04:38:31;15.00;99.90
8043;DHT22;4064;48.132;11.366;2022-07-10T04:40:57;15.00;99.90
8043;DHT22;4064;48.132;11.366;2022-07-10T04:43:23;15.00;99.90
8043;DHT22;4064;48.132;11.366;2022-07-10T04:45:49;14.90;99.90
8043;DHT22;4064;48.132;11.366;2022-07-10T04:48:14;15.00;99.90
8043;DHT22;4064;48.132;11.366;2022-07-10T04:50:40;15.00;99.90
8043;DHT22;4064;48.132;11.366;2022-07-10T04:53:05;15.00;99.90
8043;DHT22;4064;48.132;11.366;2022-07-10T04:55:31;15.10;99.90
8043;DHT22;4064;48.132;11.366;2022-07-10T04:57:57;15.10;99.90
8043;DHT22;4064;48.132;11.366;2022-07-10T05:00:23;15.10;99.90
8043;DHT22;4064;48.132;11.366;2022-07-10T05:02:49;15.20;99.90
8043;DHT22;4064;48.132;11.366;2022-07-10T05:05:15;15.30;99.90
8043;DHT22;4064;48.132;11.366;2022-07-10T05:07:40;15.30;99.90
8043;DHT22;4064;48.132;11.366;2022-07-10T05:10:06;15.30;99.90
8043;DHT22;4064;48.132;11.366;2022-07-10T05:12:32;15.20;99.90
8043;DHT22;4064;48.132;11.366;2022-07-10T05:14:58;15.20;99.90
8043;DHT22;4064;48.132;11.366;2022-07-10T05:17:25;15.10;99.90
8043;DHT22;4064;48.132;11.366;2022-07-10T05:19:52;15.10;99.90
8043;DHT22;4064;48.132;11.366;2022-07-10T05:22:19;15.10;99.90
8043;DHT22;4064;48.132;11.366;2022-07-10T05:24:44;15.10;99.90
8043;DHT22;4064;48.132;11.366;2022-07-10T05:27:10;15.00;99.90
8043;DHT22;4064;48.132;11.366;2022-07-10T05:29:36;15.00;99.90
8043;DHT22;4064;48.132;11.366;2022-07-10T05:32:02;15.00;99.90
8043;DHT22;4064;48.132;11.366;2022-07-10T05:34:27;14.90;99.90
8043;DHT22;4064;48.132;11.366;2022-07-10T05:36:53;15.00;99.90
8043;DHT22;4064;48.132;11.366;2022-07-10T05:39:19;14.90;99.90
8043;DHT22;4064;48.132;11.366;2022-07-10T05:41:44;15.00;99.90
8043;DHT22;4064;48.132;11.366;2022-07-10T05:44:10;15.00;99.90
8043;DHT22;4064;48.132;11.366;2022-07-10T05:46:36;15.00;99.90
8043;DHT22;4064;48.132;11.366;2022-07-10T05:49:01;15.10;99.90
8043;DHT22;4064;48.132;11.366;2022-07-10T05:51:27;15.10;99.90
8043;DHT22;4064;48.132;11.366;2022-07-10T05:53:53;15.20;99.90
8043;DHT22;4064;48.132;11.366;2022-07-10T05:56:18;15.30;99.90
8043;DHT22;4064;48.132;11.366;2022-07-10T05:58:44;15.30;99.90
8043;DHT22;4064;48.132;11.366;2022-07-10T06:01:09;15.40;99.90
8043;DHT22;4064;48.132;11.366;2022-07-10T06:03:35;15.50;99.90
8043;DHT22;4064;48.132;11.366;2022-07-10T06:06:01;15.60;99.90
8043;DHT22;4064;48.132;11.366;2022-07-10T06:08:26;15.60;99.90
8043;DHT22;4064;48.132;11.366;2022-07-10T06:10:52;15.70;99.90
8043;DHT22;4064;48.132;11.366;2022-07-10T06:13:18;15.80;99.90
8043;DHT22;4064;48.132;11.366;2022-07-10T06:15:44;15.80;99.90
8043;DHT22;4064;48.132;11.366;2022-07-10T06:18:09;15.70;99.90
8043;DHT22;4064;48.132;11.366;2022-07-10T06:20:35;15.80;99.90
8043;DHT22;4064;48.132;11.366;2022-07-10T06:23:01;15.60;99.90
8043;DHT22;4064;48.132;11.366;2022-07-10T06:25:27;15.70;99.90
8043;DHT22;4064;48.132;11.366;2022-07-10T06:27:52;15.70;99.90
8043;DHT22;4064;48.132;11.366;2022-07-10T06:30:18;15.70;99.90
8043;DHT22;4064;48.132;11.366;2022-07-10T06:32:43;15.80;99.90
8043;DHT22;4064;48.132;11.366;2022-07-10T06:35:09;15.70;99.90
8043;DHT22;4064;48.132;11.366;2022-07-10T06:37:35;15.60;99.90
8043;DHT22;4064;48.132;11.366;2022-07-10T06:40:01;15.60;99.90
8043;DHT22;4064;48.132;11.366;2022-07-10T06:42:27;15.50;99.90
8043;DHT22;4064;48.132;11.366;2022-07-10T06:44:52;15.50;99.90
8043;DHT22;4064;48.132;11.366;2022-07-10T06:47:19;15.40;99.90
8043;DHT22;4064;48.132;11.366;2022-07-10T06:50:08;15.50;99.90
8043;DHT22;4064;48.132;11.366;2022-07-10T06:52:34;15.50;99.90
8043;DHT22;4064;48.132;11.366;2022-07-10T06:55:02;15.50;99.90
8043;DHT22;4064;48.132;11.366;2022-07-10T06:57:28;15.40;99.90
8043;DHT22;4064;48.132;11.366;2022-07-10T06:59:54;15.50;99.90
8043;DHT22;4064;48.132;11.366;2022-07-10T07:02:20;15.50;99.90
8043;DHT22;4064;48.132;11.366;2022-07-10T07:04:45;15.50;99.90
8043;DHT22;4064;48.132;11.366;2022-07-10T07:07:15;15.40;99.90
8043;DHT22;4064;48.132;11.366;2022-07-10T07:09:41;15.40;99.90
8043;DHT22;4064;48.132;11.366;2022-07-10T07:12:08;15.50;99.90
8043;DHT22;4064;48.132;11.366;2022-07-10T07:14:34;15.50;99.90
8043;DHT22;4064;48.132;11.366;2022-07-10T07:17:00;15.70;99.90
8043;DHT22;4064;48.132;11.366;2022-07-10T07:19:31;15.80;99.90
8043;DHT22;4064;48.132;11.366;2022-07-10T07:21:58;15.80;99.90
8043;DHT22;4064;48.132;11.366;2022-07-10T07:24:42;15.80;99.90
8043;DHT22;4064;48.132;11.366;2022-07-10T07:27:09;15.90;99.90
8043;DHT22;4064;48.132;11.366;2022-07-10T07:29:35;16.00;99.90
8043;DHT22;4064;48.132;11.366;2022-07-10T07:32:00;16.00;99.90
8043;DHT22;4064;48.132;11.366;2022-07-10T07:34:26;15.90;99.90
8043;DHT22;4064;48.132;11.366;2022-07-10T07:36:52;15.80;99.90
8043;DHT22;4064;48.132;11.366;2022-07-10T07:39:17;15.80;99.90
8043;DHT22;4064;48.132;11.366;2022-07-10T07:41:43;15.80;99.90
8043;DHT22;4064;48.132;11.366;2022-07-10T07:44:08;15.80;99.90
8043;DHT22;4064;48.132;11.366;2022-07-10T07:46:34;15.90;99.90
8043;DHT22;4064;48.132;11.366;2022-07-10T07:49:00;15.90;99.90
8043;DHT22;4064;48.132;11.366;2022-07-10T07:51:25;16.00;99.90
8043;DHT22;4064;48.132;11.366;2022-07-10T07:53:51;16.10;99.90
8043;DHT22;4064;48.132;11.366;2022-07-10T07:56:17;16.20;99.90
8043;DHT22;4064;48.132;11.366;2022-07-10T07:58:42;16.30;99.90
8043;DHT22;4064;48.132;11.366;2022-07-10T08:01:08;16.70;99.90
8043;DHT22;4064;48.132;11.366;2022-07-10T08:03:34;17.40;99.90
8043;DHT22;4064;48.132;11.366;2022-07-10T08:06:01;18.00;99.90
8043;DHT22;4064;48.132;11.366;2022-07-10T08:08:26;18.30;99.90
8043;DHT22;4064;48.132;11.366;2022-07-10T08:10:52;18.60;99.90
8043;DHT22;4064;48.132;11.366;2022-07-10T08:13:18;18.90;99.90
8043;DHT22;4064;48.132;11.366;2022-07-10T08:15:43;19.30;99.90
8043;DHT22;4064;48.132;11.366;2022-07-10T08:18:09;19.60;99.90
8043;DHT22;4064;48.132;11.366;2022-07-10T08:20:35;19.80;99.90
8043;DHT22;4064;48.132;11.366;2022-07-10T08:23:00;20.20;99.90
8043;DHT22;4064;48.132;11.366;2022-07-10T08:25:28;20.30;99.90
8043;DHT22;4064;48.132;11.366;2022-07-10T08:28:00;20.50;99.90
8043;DHT22;4064;48.132;11.366;2022-07-10T08:30:26;20.90;99.90
8043;DHT22;4064;48.132;11.366;2022-07-10T08:32:52;21.50;99.90
8043;DHT22;4064;48.132;11.366;2022-07-10T08:35:17;22.10;99.90
8043;DHT22;4064;48.132;11.366;2022-07-10T08:37:44;22.30;98.20
8043;DHT22;4064;48.132;11.366;2022-07-10T08:40:12;22.10;97.50
8043;DHT22;4064;48.132;11.366;2022-07-10T08:42:38;21.80;96.30
8043;DHT22;4064;48.132;11.366;2022-07-10T08:45:05;21.40;96.00
8043;DHT22;4064;48.132;11.366;2022-07-10T08:47:34;20.80;96.00
8043;DHT22;4064;48.132;11.366;2022-07-10T08:50:00;20.30;96.20
8043;DHT22;4064;48.132;11.366;2022-07-10T08:52:32;19.90;97.20
8043;DHT22;4064;48.132;11.366;2022-07-10T08:54:59;19.50;97.30
8043;DHT22;4064;48.132;11.366;2022-07-10T08:57:26;19.70;98.30
8043;DHT22;4064;48.132;11.366;2022-07-10T08:59:51;20.40;98.10
8043;DHT22;4064;48.132;11.366;2022-07-10T09:02:17;21.00;96.80
8043;DHT22;4064;48.132;11.366;2022-07-10T09:04:43;21.60;95.50
8043;DHT22;4064;48.132;11.366;2022-07-10T09:07:09;21.50;94.40
8043;DHT22;4064;48.132;11.366;2022-07-10T09:09:54;21.00;93.10
8043;DHT22;4064;48.132;11.366;2022-07-10T09:12:23;20.60;93.30
8043;DHT22;4064;48.132;11.366;2022-07-10T09:14:50;20.90;93.30
8043;DHT22;4064;48.132;11.366;2022-07-10T09:17:17;21.60;93.10
8043;DHT22;4064;48.132;11.366;2022-07-10T09:19:43;21.70;92.00
8043;DHT22;4064;48.132;11.366;2022-07-10T09:22:10;22.10;91.80
8043;DHT22;4064;48.132;11.366;2022-07-10T09:24:44;22.80;91.40
8043;DHT22;4064;48.132;11.366;2022-07-10T09:27:12;23.50;87.80
8043;DHT22;4064;48.132;11.366;2022-07-10T09:29:51;23.80;84.70
8043;DHT22;4064;48.132;11.366;2022-07-10T09:32:22;24.00;81.40
8043;DHT22;4064;48.132;11.366;2022-07-10T09:34:49;23.90;79.50
8043;DHT22;4064;48.132;11.366;2022-07-10T09:39:54;23.80;75.80
8043;DHT22;4064;48.132;11.366;2022-07-10T09:42:37;23.40;76.50
8043;DHT22;4064;48.132;11.366;2022-07-10T09:52:52;23.50;69.90
8043;DHT22;4064;48.132;11.366;2022-07-10T09:55:23;23.20;69.40
8043;DHT22;4064;48.132;11.366;2022-07-10T09:57:55;22.60;71.10
8043;DHT22;4064;48.132;11.366;2022-07-10T10:00:28;22.00;72.70
8043;DHT22;4064;48.132;11.366;2022-07-10T10:02:56;21.40;73.30
8043;DHT22;4064;48.132;11.366;2022-07-10T10:05:28;21.40;74.70
8043;DHT22;4064;48.132;11.366;2022-07-10T10:07:56;22.00;77.70
8043;DHT22;4064;48.132;11.366;2022-07-10T10:10:24;22.40;74.70
8043;DHT22;4064;48.132;11.366;2022-07-10T10:12:55;22.70;74.90
8043;DHT22;4064;48.132;11.366;2022-07-10T10:15:23;22.60;72.80
8043;DHT22;4064;48.132;11.366;2022-07-10T10:17:50;22.20;72.10
8043;DHT22;4064;48.132;11.366;2022-07-10T10:20:17;22.40;72.40
8043;DHT22;4064;48.132;11.366;2022-07-10T10:23:04;22.80;70.10
8043;DHT22;4064;48.132;11.366;2022-07-10T10:25:32;23.00;69.40
8043;DHT22;4064;48.132;11.366;2022-07-10T10:28:01;22.70;69.40
8043;DHT22;4064;48.132;11.366;2022-07-10T10:30:28;22.20;69.60
8043;DHT22;4064;48.132;11.366;2022-07-10T10:32:54;21.90;71.10
8043;DHT22;4064;48.132;11.366;2022-07-10T10:35:42;21.70;71.90
8043;DHT22;4064;48.132;11.366;2022-07-10T10:38:09;21.60;72.30
8043;DHT22;4064;48.132;11.366;2022-07-10T10:40:35;21.80;71.90
8043;DHT22;4064;48.132;11.366;2022-07-10T10:43:31;22.10;70.00
8043;DHT22;4064;48.132;11.366;2022-07-10T10:45:56;22.20;70.20
8043;DHT22;4064;48.132;11.366;2022-07-10T10:48:22;22.00;70.60
8043;DHT22;4064;48.132;11.366;2022-07-10T10:50:52;21.50;69.50
8043;DHT22;4064;48.132;11.366;2022-07-10T10:53:21;21.20;70.80
8043;DHT22;4064;48.132;11.366;2022-07-10T10:58:44;20.70;72.50
8043;DHT22;4064;48.132;11.366;2022-07-10T11:12:10;22.10;71.40
8043;DHT22;4064;48.132;11.366;2022-07-10T11:14:45;22.00;69.50
8043;DHT22;4064;48.132;11.366;2022-07-10T11:17:13;22.20;70.70
8043;DHT22;4064;48.132;11.366;2022-07-10T11:19:38;22.20;68.10
8043;DHT22;4064;48.132;11.366;2022-07-10T11:28:05;22.80;67.20
8043;DHT22;4064;48.132;11.366;2022-07-10T11:30:50;22.30;65.90
8043;DHT22;4064;48.132;11.366;2022-07-10T11:33:17;22.20;66.20
8043;DHT22;4064;48.132;11.366;2022-07-10T11:35:48;22.40;65.10
8043;DHT22;4064;48.132;11.366;2022-07-10T11:38:24;22.50;65.10
8043;DHT22;4064;48.132;11.366;2022-07-10T11:40:51;22.20;64.90
8043;DHT22;4064;48.132;11.366;2022-07-10T11:43:19;21.80;65.40
8043;DHT22;4064;48.132;11.366;2022-07-10T11:45:47;21.70;66.10
8043;DHT22;4064;48.132;11.366;2022-07-10T11:48:18;21.60;66.60
8043;DHT22;4064;48.132;11.366;2022-07-10T11:50:44;21.50;67.20
8043;DHT22;4064;48.132;11.366;2022-07-10T11:53:10;21.80;67.60
8043;DHT22;4064;48.132;11.366;2022-07-10T11:55:37;22.10;66.70
8043;DHT22;4064;48.132;11.366;2022-07-10T11:58:16;22.60;66.00
8043;DHT22;4064;48.132;11.366;2022-07-10T12:00:42;22.60;63.60
8043;DHT22;4064;48.132;11.366;2022-07-10T12:03:19;22.90;65.10
8043;DHT22;4064;48.132;11.366;2022-07-10T12:05:46;23.50;64.20
8043;DHT22;4064;48.132;11.366;2022-07-10T12:08:12;23.70;63.40
8043;DHT22;4064;48.132;11.366;2022-07-10T12:10:41;23.60;64.30
8043;DHT22;4064;48.132;11.366;2022-07-10T12:13:12;23.10;63.60
8043;DHT22;4064;48.132;11.366;2022-07-10T12:15:39;22.60;63.00
8043;DHT22;4064;48.132;11.366;2022-07-10T12:18:07;22.10;62.90
8043;DHT22;4064;48.132;11.366;2022-07-10T12:20:33;22.20;64.50
8043;DHT22;4064;48.132;11.366;2022-07-10T12:22:59;22.70;63.50
8043;DHT22;4064;48.132;11.366;2022-07-10T12:25:25;23.30;61.60
8043;DHT22;4064;48.132;11.366;2022-07-10T12:27:58;24.00;61.60
8043;DHT22;4064;48.132;11.366;2022-07-10T12:33:11;25.00;60.00
8043;DHT22;4064;48.132;11.366;2022-07-10T12:38:21;25.00;58.50
8043;DHT22;4064;48.132;11.366;2022-07-10T12:40:47;24.40;57.10
8043;DHT22;4064;48.132;11.366;2022-07-10T12:43:24;24.00;59.10
8043;DHT22;4064;48.132;11.366;2022-07-10T12:46:14;23.90;58.50
8043;DHT22;4064;48.132;11.366;2022-07-10T12:49:07;23.80;59.30
8043;DHT22;4064;48.132;11.366;2022-07-10T12:51:45;24.00;56.90
8043;DHT22;4064;48.132;11.366;2022-07-10T12:56:58;24.00;56.60
8043;DHT22;4064;48.132;11.366;2022-07-10T12:59:24;23.80;57.70
8043;DHT22;4064;48.132;11.366;2022-07-10T13:01:49;24.10;57.50
8043;DHT22;4064;48.132;11.366;2022-07-10T13:04:23;24.50;56.90
8043;DHT22;4064;48.132;11.366;2022-07-10T13:06:49;24.50;56.80
8043;DHT22;4064;48.132;11.366;2022-07-10T13:09:25;24.20;55.30
8043;DHT22;4064;48.132;11.366;2022-07-10T13:11:53;24.00;55.80
8043;DHT22;4064;48.132;11.366;2022-07-10T13:14:20;23.90;55.80
8043;DHT22;4064;48.132;11.366;2022-07-10T13:16:46;23.70;55.40
8043;DHT22;4064;48.132;11.366;2022-07-10T13:19:12;23.60;55.20
8043;DHT22;4064;48.132;11.366;2022-07-10T13:21:37;23.20;55.80
8043;DHT22;4064;48.132;11.366;2022-07-10T13:24:04;23.00;56.00
8043;DHT22;4064;48.132;11.366;2022-07-10T13:26:30;22.90;56.60
8043;DHT22;4064;48.132;11.366;2022-07-10T13:28:57;22.70;56.50
8043;DHT22;4064;48.132;11.366;2022-07-10T13:31:22;22.80;58.10
8043;DHT22;4064;48.132;11.366;2022-07-10T13:33:48;23.40;58.50
8043;DHT22;4064;48.132;11.366;2022-07-10T13:36:14;23.70;55.80
8043;DHT22;4064;48.132;11.366;2022-07-10T13:38:39;23.50;56.00
8043;DHT22;4064;48.132;11.366;2022-07-10T13:41:07;23.50;55.60
8043;DHT22;4064;48.132;11.366;2022-07-10T13:43:33;23.10;55.50
8043;DHT22;4064;48.132;11.366;2022-07-10T13:46:01;23.00;56.50
8043;DHT22;4064;48.132;11.366;2022-07-10T13:48:28;23.30;57.60
8043;DHT22;4064;48.132;11.366;2022-07-10T13:50:54;23.30;56.90
8043;DHT22;4064;48.132;11.366;2022-07-10T13:53:20;23.40;57.10
8043;DHT22;4064;48.132;11.366;2022-07-10T13:55:47;23.30;55.70
8043;DHT22;4064;48.132;11.366;2022-07-10T13:58:13;23.10;55.90
8043;DHT22;4064;48.132;11.366;2022-07-10T14:00:39;23.20;56.90
8043;DHT22;4064;48.132;11.366;2022-07-10T14:03:05;23.40;56.90
8043;DHT22;4064;48.132;11.366;2022-07-10T14:05:32;23.70;55.80
8043;DHT22;4064;48.132;11.366;2022-07-10T14:07:59;23.80;55.60
8043;DHT22;4064;48.132;11.366;2022-07-10T14:10:24;24.00;55.60
8043;DHT22;4064;48.132;11.366;2022-07-10T14:12:52;24.00;55.40
8043;DHT22;4064;48.132;11.366;2022-07-10T14:15:18;24.10;54.10
8043;DHT22;4064;48.132;11.366;2022-07-10T14:17:44;24.10;53.70
8043;DHT22;4064;48.132;11.366;2022-07-10T14:20:10;24.00;52.80
8043;DHT22;4064;48.132;11.366;2022-07-10T14:22:37;23.50;54.00
8043;DHT22;4064;48.132;11.366;2022-07-10T14:25:04;23.30;54.60
8043;DHT22;4064;48.132;11.366;2022-07-10T14:27:30;23.20;54.80
8043;DHT22;4064;48.132;11.366;2022-07-10T14:29:57;23.00;54.10
8043;DHT22;4064;48.132;11.366;2022-07-10T14:32:23;22.90;53.70
8043;DHT22;4064;48.132;11.366;2022-07-10T14:34:49;22.80;54.10
8043;DHT22;4064;48.132;11.366;2022-07-10T14:37:15;22.60;54.60
8043;DHT22;4064;48.132;11.366;2022-07-10T14:39:41;22.50;55.40
8043;DHT22;4064;48.132;11.366;2022-07-10T14:42:07;22.50;55.60
8043;DHT22;4064;48.132;11.366;2022-07-10T14:44:34;22.60;55.30
8043;DHT22;4064;48.132;11.366;2022-07-10T14:47:00;22.50;54.30
8043;DHT22;4064;48.132;11.366;2022-07-10T14:49:26;22.30;55.00
8043;DHT22;4064;48.132;11.366;2022-07-10T14:51:51;22.30;55.30
8043;DHT22;4064;48.132;11.366;2022-07-10T14:54:17;22.30;55.20
8043;DHT22;4064;48.132;11.366;2022-07-10T14:56:43;22.30;55.30
8043;DHT22;4064;48.132;11.366;2022-07-10T14:59:09;22.30;54.10
8043;DHT22;4064;48.132;11.366;2022-07-10T15:01:35;22.10;53.90
8043;DHT22;4064;48.132;11.366;2022-07-10T15:04:01;22.00;53.60
8043;DHT22;4064;48.132;11.366;2022-07-10T15:06:27;21.80;53.50
8043;DHT22;4064;48.132;11.366;2022-07-10T15:08:52;21.80;54.70
8043;DHT22;4064;48.132;11.366;2022-07-10T15:11:19;21.60;53.60
8043;DHT22;4064;48.132;11.366;2022-07-10T15:13:50;21.50;53.80
8043;DHT22;4064;48.132;11.366;2022-07-10T15:16:18;21.40;53.40
8043;DHT22;4064;48.132;11.366;2022-07-10T15:18:43;21.30;53.70
8043;DHT22;4064;48.132;11.366;2022-07-10T15:21:09;21.30;54.50
8043;DHT22;4064;48.132;11.366;2022-07-10T15:23:36;21.30;53.90
8043;DHT22;4064;48.132;11.366;2022-07-10T15:26:02;21.30;54.10
8043;DHT22;4064;48.132;11.366;2022-07-10T15:28:29;21.30;54.00
8043;DHT22;4064;48.132;11.366;2022-07-10T15:30:55;21.20;53.90
8043;DHT22;4064;48.132;11.366;2022-07-10T15:33:21;21.10;54.10
8043;DHT22;4064;48.132;11.366;2022-07-10T15:35:47;21.00;53.60
8043;DHT22;4064;48.132;11.366;2022-07-10T15:38:13;21.10;54.90
8043;DHT22;4064;48.132;11.366;2022-07-10T15:40:39;21.00;54.00
8043;DHT22;4064;48.132;11.366;2022-07-10T15:43:05;21.00;54.00
8043;DHT22;4064;48.132;11.366;2022-07-10T15:45:30;21.00;53.90
8043;DHT22;4064;48.132;11.366;2022-07-10T15:47:56;21.10;54.10
8043;DHT22;4064;48.132;11.366;2022-07-10T15:50:22;21.00;53.70
8043;DHT22;4064;48.132;11.366;2022-07-10T15:52:48;21.00;53.80
8043;DHT22;4064;48.132;11.366;2022-07-10T15:55:13;21.00;53.90
8043;DHT22;4064;48.132;11.366;2022-07-10T15:57:40;20.90;53.60
8043;DHT22;4064;48.132;11.366;2022-07-10T16:00:07;20.90;53.90
8043;DHT22;4064;48.132;11.366;2022-07-10T16:02:33;20.90;53.50
8043;DHT22;4064;48.132;11.366;2022-07-10T16:04:59;20.90;53.90
8043;DHT22;4064;48.132;11.366;2022-07-10T16:07:25;20.90;53.90
8043;DHT22;4064;48.132;11.366;2022-07-10T16:09:50;20.80;53.80
8043;DHT22;4064;48.132;11.366;2022-07-10T16:12:16;20.70;53.50
8043;DHT22;4064;48.132;11.366;2022-07-10T16:14:42;20.70;53.70
8043;DHT22;4064;48.132;11.366;2022-07-10T16:17:08;20.70;54.50
8043;DHT22;4064;48.132;11.366;2022-07-10T16:19:33;20.60;53.00
8043;DHT22;4064;48.132;11.366;2022-07-10T16:21:59;20.50;53.90
8043;DHT22;4064;48.132;11.366;2022-07-10T16:24:25;20.50;54.00